< < Back
Terminal Aerodrome Forecast


Current Version              Previous Versions:   1  2  3  4  5  6  7  8  9  

Terminal Aerodrome Forecast

528
FTUS44 KBMX 050340 AAA
TAFBHM
TAF AMD
KBHM 050340Z 0504/0524 20010KT P6SM OVC016
     FM050800 19003KT P6SM VCSH OVC015
     FM051800 23010KT P6SM BKN050=

Latest METAR

949
SAUS70 KWBC 060100 RRD
MTRBHM
METAR KBHM 060053Z 27006KT 10SM SCT048 BKN250 26/21 A3010 RMK AO2 SLP185
T02610211


USA.gov is the U.S. government's official web portal to all federal, state and local government web resources and services.